Time;durP1;ratioP1;P1;durP2;ratioP2;P2;SDS_P1;SDS_P2;PMS_P1;PMS_P2;Temp;Humidity;BMP_temperature;BMP_pressure;BME280_temperature;BME280_humidity;BME280_pressure;Samples;Min_cycle;Max_cycle;Signal;HPM_P1;HPM_P2
2022/10/28 00:00:50;;;;;;;19.02;6.05;;;;;;;;;;5074860;28;20028;-87
2022/10/28 00:03:16;;;;;;;19.45;6.15;;;;;;;;;;5073645;28;20028;-86
2022/10/28 00:05:42;;;;;;;17.15;5.50;;;;;;;;;;5091772;28;20107;-86
2022/10/28 00:08:07;;;;;;;15.18;5.80;;;;;;;;;;5090709;28;20448;-85
2022/10/28 00:10:33;;;;;;;13.68;5.75;;;;;;;;;;5092338;28;20032;-87
2022/10/28 00:12:58;;;;;;;15.00;6.03;;;;;;;;;;5091486;28;20031;-85
2022/10/28 00:15:24;;;;;;;20.10;6.10;;;;;;;;;;5091840;28;20027;-86
2022/10/28 00:17:50;;;;;;;16.98;5.70;;;;;;;;;;5091527;28;20036;-87
2022/10/28 00:20:15;;;;;;;14.75;5.60;;;;;;;;;;5074471;28;20031;-87
2022/10/28 00:22:41;;;;;;;16.33;5.60;;;;;;;;;;5091073;28;20028;-86
2022/10/28 00:25:07;;;;;;;13.38;6.03;;;;;;;;;;5090818;28;20024;-85
2022/10/28 00:27:33;;;;;;;16.63;5.60;;;;;;;;;;5091077;28;20521;-87
2022/10/28 00:29:59;;;;;;;20.33;6.15;;;;;;;;;;5091020;28;20036;-86
2022/10/28 00:32:28;;;;;;;15.82;5.57;;;;;;;;;;5091417;28;20020;-86
2022/10/28 00:34:53;;;;;;;16.38;6.10;;;;;;;;;;5073672;28;20020;-87
2022/10/28 00:37:19;;;;;;;15.70;5.97;;;;;;;;;;5092416;28;20031;-87
2022/10/28 00:39:45;;;;;;;16.90;5.65;;;;;;;;;;5092458;28;20052;-87
2022/10/28 00:42:11;;;;;;;20.38;6.00;;;;;;;;;;5073816;28;20388;-88
2022/10/28 00:44:50;;;;;;;19.35;5.57;;;;;;;;;;5091149;28;20020;-88
2022/10/28 00:47:50;;;;;;;15.07;5.75;;;;;;;;;;5074656;28;20174;-88
2022/10/28 00:50:22;;;;;;;17.15;5.47;;;;;;;;;;5090589;28;20035;-87
2022/10/28 00:52:52;;;;;;;24.45;6.03;;;;;;;;;;5073469;28;20067;-88
2022/10/28 00:55:20;;;;;;;20.77;5.80;;;;;;;;;;5091799;28;20115;-87
2022/10/28 00:57:46;;;;;;;17.05;5.07;;;;;;;;;;5093343;28;20032;-87
2022/10/28 01:00:13;;;;;;;15.55;5.82;;;;;;;;;;5077290;28;20541;-87
2022/10/28 01:02:47;;;;;;;18.67;6.13;;;;;;;;;;5092632;28;20383;-88
2022/10/28 01:05:16;;;;;;;13.23;5.07;;;;;;;;;;5074165;28;20086;-88
2022/10/28 01:07:43;;;;;;;13.40;5.55;;;;;;;;;;5076669;28;20052;-87
2022/10/28 01:10:10;;;;;;;12.52;4.85;;;;;;;;;;5094434;28;20097;-87
2022/10/28 01:12:56;;;;;;;14.70;5.53;;;;;;;;;;5095247;28;20028;-87
2022/10/28 01:15:43;;;;;;;14.15;5.38;;;;;;;;;;5095127;28;20642;-87
2022/10/28 01:18:24;;;;;;;13.63;5.57;;;;;;;;;;5094965;28;20020;-87
2022/10/28 01:21:27;;;;;;;13.15;5.53;;;;;;;;;;5076632;28;20034;-88
2022/10/28 01:23:52;;;;;;;15.38;5.30;;;;;;;;;;5076883;28;20475;-86
2022/10/28 01:27:07;;;;;;;17.00;5.55;;;;;;;;;;5095768;28;20031;-87
2022/10/28 01:29:58;;;;;;;17.25;5.50;;;;;;;;;;5057834;28;20040;-87
2022/10/28 01:32:48;;;;;;;17.17;5.28;;;;;;;;;;5093742;28;20031;-86
2022/10/28 01:35:45;;;;;;;19.00;5.70;;;;;;;;;;5093630;28;20059;-86
2022/10/28 01:38:29;;;;;;;19.02;6.00;;;;;;;;;;5094273;28;20028;-88
2022/10/28 01:41:09;;;;;;;14.18;5.25;;;;;;;;;;5075353;28;20024;-86
2022/10/28 01:43:52;;;;;;;15.23;5.10;;;;;;;;;;5075564;28;20455;-86
2022/10/28 01:46:23;;;;;;;14.10;5.45;;;;;;;;;;5093695;28;20083;-86
2022/10/28 01:49:08;;;;;;;14.68;5.07;;;;;;;;;;5092710;28;20109;-86
2022/10/28 01:51:42;;;;;;;13.48;5.28;;;;;;;;;;5092648;28;20086;-86
2022/10/28 01:54:10;;;;;;;12.02;4.72;;;;;;;;;;5093373;28;20626;-87
2022/10/28 01:56:39;;;;;;;21.95;5.50;;;;;;;;;;5076187;28;20035;-87
2022/10/28 01:59:10;;;;;;;16.88;5.45;;;;;;;;;;5099614;28;20101;-86
2022/10/28 02:01:35;;;;;;;15.25;4.97;;;;;;;;;;5103848;28;20092;-87
2022/10/28 02:04:01;;;;;;;17.63;5.30;;;;;;;;;;5102609;28;20060;-87
2022/10/28 02:06:30;;;;;;;18.88;5.32;;;;;;;;;;5097160;28;20021;-86
2022/10/28 02:08:55;;;;;;;12.45;5.40;;;;;;;;;;5092645;28;20064;-86
2022/10/28 02:11:20;;;;;;;14.77;5.60;;;;;;;;;;5093448;28;20063;-87
2022/10/28 02:13:58;;;;;;;14.50;4.97;;;;;;;;;;5075345;28;20467;-86
2022/10/28 02:16:37;;;;;;;16.38;5.45;;;;;;;;;;5077235;28;20561;-86
2022/10/28 02:19:25;;;;;;;16.77;5.05;;;;;;;;;;5096343;28;20074;-86
2022/10/28 02:22:18;;;;;;;17.40;5.25;;;;;;;;;;5075369;28;20028;-87
2022/10/28 02:25:12;;;;;;;17.17;5.22;;;;;;;;;;5093369;28;20064;-86
2022/10/28 02:27:56;;;;;;;15.40;5.05;;;;;;;;;;5091691;28;20047;-86
2022/10/28 02:30:37;;;;;;;18.35;5.28;;;;;;;;;;5092718;28;20036;-86
2022/10/28 02:33:05;;;;;;;14.80;5.28;;;;;;;;;;5092933;28;20487;-87
2022/10/28 02:35:36;;;;;;;14.93;5.22;;;;;;;;;;5091195;28;20040;-86
2022/10/28 02:38:09;;;;;;;20.40;5.57;;;;;;;;;;5092847;28;20045;-87
2022/10/28 02:40:38;;;;;;;17.80;5.00;;;;;;;;;;5092833;28;20055;-87
2022/10/28 02:43:08;;;;;;;15.32;5.20;;;;;;;;;;5091347;28;20028;-87
2022/10/28 02:45:38;;;;;;;20.75;5.43;;;;;;;;;;5091923;28;20054;-86
2022/10/28 02:48:15;;;;;;;20.58;6.03;;;;;;;;;;5094216;28;20028;-86
2022/10/28 02:50:46;;;;;;;13.63;5.30;;;;;;;;;;5092725;28;20028;-87
2022/10/28 02:53:18;;;;;;;17.67;5.40;;;;;;;;;;5074595;28;20024;-86
2022/10/28 02:55:48;;;;;;;15.77;5.22;;;;;;;;;;5092235;28;20504;-87
2022/10/28 02:58:13;;;;;;;20.23;5.40;;;;;;;;;;5093172;28;20020;-87
2022/10/28 03:00:43;;;;;;;19.98;5.63;;;;;;;;;;5074566;28;20277;-87
2022/10/28 03:03:09;;;;;;;14.18;5.18;;;;;;;;;;5092394;28;20491;-86
2022/10/28 03:05:34;;;;;;;14.75;5.22;;;;;;;;;;5092027;28;20048;-85
2022/10/28 03:07:59;;;;;;;13.80;5.07;;;;;;;;;;5092015;28;20020;-86
2022/10/28 03:10:25;;;;;;;17.38;5.03;;;;;;;;;;5091694;28;20036;-86
2022/10/28 03:12:50;;;;;;;18.15;5.43;;;;;;;;;;5090362;28;20024;-86
2022/10/28 03:15:16;;;;;;;15.68;5.15;;;;;;;;;;5091784;28;20491;-87
2022/10/28 03:17:41;;;;;;;17.05;5.50;;;;;;;;;;5092168;28;20024;-86
2022/10/28 03:20:07;;;;;;;17.25;5.40;;;;;;;;;;5073858;28;20062;-86
2022/10/28 03:22:32;;;;;;;20.30;5.60;;;;;;;;;;5091762;28;20021;-86
2022/10/28 03:24:58;;;;;;;19.83;5.40;;;;;;;;;;5091798;28;20481;-86
2022/10/28 03:27:23;;;;;;;15.15;5.40;;;;;;;;;;5091553;28;20022;-87
2022/10/28 03:29:49;;;;;;;17.65;5.70;;;;;;;;;;5072442;28;20039;-86
2022/10/28 03:32:14;;;;;;;17.73;5.28;;;;;;;;;;5091445;28;20503;-88
2022/10/28 03:34:40;;;;;;;19.83;5.70;;;;;;;;;;5091757;28;20028;-87
2022/10/28 03:37:05;;;;;;;17.70;5.32;;;;;;;;;;5091672;28;20073;-87
2022/10/28 03:39:31;;;;;;;14.50;5.10;;;;;;;;;;5073624;28;20094;-87
2022/10/28 03:41:57;;;;;;;17.40;5.30;;;;;;;;;;5091422;28;20024;-86
2022/10/28 03:44:22;;;;;;;16.63;5.53;;;;;;;;;;5091741;28;20039;-87
2022/10/28 03:46:48;;;;;;;17.55;5.60;;;;;;;;;;5090322;28;20028;-88
2022/10/28 03:49:13;;;;;;;16.42;5.53;;;;;;;;;;5091528;28;20031;-88
2022/10/28 03:51:38;;;;;;;16.15;5.85;;;;;;;;;;5090286;28;20111;-87
2022/10/28 03:54:04;;;;;;;14.18;5.38;;;;;;;;;;5091487;28;20024;-86
2022/10/28 03:56:29;;;;;;;16.08;5.65;;;;;;;;;;5090947;28;20826;-87
2022/10/28 03:58:55;;;;;;;14.05;5.32;;;;;;;;;;5090491;28;20042;-87
2022/10/28 04:01:20;;;;;;;16.70;5.32;;;;;;;;;;5091565;28;20612;-88
2022/10/28 04:03:46;;;;;;;22.13;5.57;;;;;;;;;;5091912;28;20042;-87
2022/10/28 04:06:11;;;;;;;17.95;5.35;;;;;;;;;;5091744;28;20467;-88
2022/10/28 04:08:38;;;;;;;13.52;5.05;;;;;;;;;;5090333;28;20028;-87
2022/10/28 04:11:03;;;;;;;17.33;5.22;;;;;;;;;;5090755;28;20102;-87
2022/10/28 04:13:28;;;;;;;12.90;5.10;;;;;;;;;;5089640;28;20070;-86
2022/10/28 04:15:54;;;;;;;15.43;4.95;;;;;;;;;;5090692;28;20028;-86
2022/10/28 04:18:20;;;;;;;15.15;5.13;;;;;;;;;;5090995;28;20022;-86
2022/10/28 04:20:45;;;;;;;15.93;5.22;;;;;;;;;;5089115;28;20027;-86
2022/10/28 04:23:15;;;;;;;13.23;4.72;;;;;;;;;;5090448;28;20024;-86
2022/10/28 04:25:42;;;;;;;20.10;5.25;;;;;;;;;;5072291;28;20104;-86
2022/10/28 04:28:07;;;;;;;19.92;5.25;;;;;;;;;;5071991;28;20028;-86
2022/10/28 04:30:33;;;;;;;16.42;4.95;;;;;;;;;;5090716;28;20382;-86
2022/10/28 04:32:58;;;;;;;14.32;4.80;;;;;;;;;;5090611;28;20020;-85
2022/10/28 04:35:24;;;;;;;16.23;5.15;;;;;;;;;;5090495;28;20402;-86
2022/10/28 04:37:49;;;;;;;13.43;5.25;;;;;;;;;;5091100;28;20454;-86
2022/10/28 04:40:15;;;;;;;20.58;5.93;;;;;;;;;;5072223;28;20082;-86
2022/10/28 04:42:47;;;;;;;21.95;5.07;;;;;;;;;;5089729;28;20032;-86
2022/10/28 04:45:14;;;;;;;12.15;4.65;;;;;;;;;;5089229;28;20023;-85
2022/10/28 04:47:40;;;;;;;15.38;5.13;;;;;;;;;;5090124;28;20032;-86
2022/10/28 04:50:06;;;;;;;16.85;5.28;;;;;;;;;;5090009;28;20059;-85
2022/10/28 04:52:31;;;;;;;18.90;5.20;;;;;;;;;;5089783;28;20074;-86
2022/10/28 04:54:57;;;;;;;14.63;5.15;;;;;;;;;;5090145;28;20518;-86
2022/10/28 04:57:22;;;;;;;17.25;5.35;;;;;;;;;;5071661;28;20032;-86
2022/10/28 04:59:48;;;;;;;16.25;5.13;;;;;;;;;;5090092;28;20108;-86
2022/10/28 05:02:13;;;;;;;19.55;5.55;;;;;;;;;;5090034;28;20025;-85
2022/10/28 05:04:39;;;;;;;19.80;5.45;;;;;;;;;;5089949;28;20024;-86
2022/10/28 05:07:04;;;;;;;17.00;5.32;;;;;;;;;;5071821;28;20122;-86
2022/10/28 05:09:30;;;;;;;16.40;5.20;;;;;;;;;;5090135;28;20024;-85
2022/10/28 05:11:55;;;;;;;14.88;5.15;;;;;;;;;;5089954;28;20024;-86
2022/10/28 05:14:20;;;;;;;23.58;5.38;;;;;;;;;;5071942;28;20547;-86
2022/10/28 05:16:46;;;;;;;13.98;5.05;;;;;;;;;;5088590;28;20395;-86
2022/10/28 05:19:11;;;;;;;17.98;5.30;;;;;;;;;;5088691;28;20032;-85
2022/10/28 05:21:37;;;;;;;17.67;5.63;;;;;;;;;;5088460;28;20418;-86
2022/10/28 05:24:02;;;;;;;15.90;5.20;;;;;;;;;;5089847;28;20051;-84
2022/10/28 05:26:28;;;;;;;22.98;5.22;;;;;;;;;;5090169;28;20032;-86
2022/10/28 05:28:53;;;;;;;19.50;5.60;;;;;;;;;;5071969;28;20032;-87
2022/10/28 05:31:19;;;;;;;16.83;5.40;;;;;;;;;;5089814;28;20036;-85
2022/10/28 05:33:44;;;;;;;18.60;5.55;;;;;;;;;;5097577;28;20016;-86
2022/10/28 05:36:10;;;;;;;16.45;5.53;;;;;;;;;;5076168;28;20028;-86
2022/10/28 05:38:35;;;;;;;15.75;5.32;;;;;;;;;;5088713;28;20028;-85
2022/10/28 05:41:02;;;;;;;13.60;5.05;;;;;;;;;;5090003;28;20023;-86
2022/10/28 05:43:27;;;;;;;21.30;5.45;;;;;;;;;;5089286;28;20050;-85
2022/10/28 05:45:54;;;;;;;14.25;5.28;;;;;;;;;;5088703;28;20051;-86
2022/10/28 05:48:20;;;;;;;17.60;6.00;;;;;;;;;;5071377;28;20024;-84
2022/10/28 05:50:46;;;;;;;15.82;5.30;;;;;;;;;;5071402;28;20020;-86
2022/10/28 05:53:11;;;;;;;14.07;5.70;;;;;;;;;;5091516;28;20028;-85
2022/10/28 05:55:36;;;;;;;21.25;5.47;;;;;;;;;;5074910;28;20046;-85
2022/10/28 05:58:02;;;;;;;15.57;5.40;;;;;;;;;;5093392;28;20032;-84
2022/10/28 06:00:28;;;;;;;24.55;5.60;;;;;;;;;;5093586;28;20020;-83
2022/10/28 06:03:08;;;;;;;19.40;5.18;;;;;;;;;;5092620;28;20020;-85
2022/10/28 06:05:34;;;;;;;19.27;5.77;;;;;;;;;;5093686;28;20024;-84
2022/10/28 06:07:59;;;;;;;19.35;5.28;;;;;;;;;;5094397;28;20839;-81
2022/10/28 06:10:24;;;;;;;20.00;5.57;;;;;;;;;;5095069;28;20623;-79
2022/10/28 06:12:50;;;;;;;21.52;5.35;;;;;;;;;;5093525;28;20077;-82
2022/10/28 06:15:15;;;;;;;16.13;5.53;;;;;;;;;;5093797;28;20016;-81
2022/10/28 06:17:41;;;;;;;17.77;5.07;;;;;;;;;;5093087;28;20032;-82
2022/10/28 06:20:06;;;;;;;17.42;5.45;;;;;;;;;;5093036;28;20024;-77
2022/10/28 06:22:32;;;;;;;18.73;5.40;;;;;;;;;;5092564;28;20024;-77
2022/10/28 06:24:57;;;;;;;20.27;5.40;;;;;;;;;;5092526;28;20048;-77
2022/10/28 06:27:23;;;;;;;15.27;5.38;;;;;;;;;;5092353;28;20026;-79
2022/10/28 06:29:48;;;;;;;16.23;5.13;;;;;;;;;;5092572;28;20016;-79
2022/10/28 06:32:13;;;;;;;18.35;5.78;;;;;;;;;;5092203;28;20077;-80
2022/10/28 06:34:39;;;;;;;20.77;5.90;;;;;;;;;;5092297;28;20028;-81
2022/10/28 06:37:05;;;;;;;18.63;5.97;;;;;;;;;;5091085;28;20024;-80
2022/10/28 06:39:31;;;;;;;18.50;5.40;;;;;;;;;;5090864;28;20596;-80
2022/10/28 06:41:56;;;;;;;24.17;5.97;;;;;;;;;;5092312;28;20610;-80
2022/10/28 06:44:22;;;;;;;17.52;5.95;;;;;;;;;;5073588;28;20032;-79
2022/10/28 06:46:47;;;;;;;19.27;5.43;;;;;;;;;;5091942;28;20105;-80
2022/10/28 06:49:12;;;;;;;15.68;5.10;;;;;;;;;;5092089;28;20666;-81
2022/10/28 06:51:38;;;;;;;19.92;5.43;;;;;;;;;;5073694;28;20035;-82
2022/10/28 06:54:04;;;;;;;23.38;6.03;;;;;;;;;;5073990;28;20583;-83
2022/10/28 06:56:29;;;;;;;17.17;5.50;;;;;;;;;;5090818;28;20055;-80
2022/10/28 06:58:54;;;;;;;16.55;5.43;;;;;;;;;;5091805;28;20028;-75
2022/10/28 07:01:20;;;;;;;16.20;5.53;;;;;;;;;;5092127;28;20032;-82
2022/10/28 07:03:50;;;;;;;18.33;5.90;;;;;;;;;;5090405;28;20058;-81
2022/10/28 07:06:15;;;;;;;16.73;5.70;;;;;;;;;;5091797;28;20081;-83
2022/10/28 07:08:41;;;;;;;16.35;5.65;;;;;;;;;;5091354;28;20030;-87
2022/10/28 07:11:07;;;;;;;19.70;6.10;;;;;;;;;;5091809;28;20061;-78
2022/10/28 07:13:32;;;;;;;13.75;5.35;;;;;;;;;;5073303;28;20123;-80
2022/10/28 07:15:59;;;;;;;17.45;5.47;;;;;;;;;;5091895;28;20028;-81
2022/10/28 07:18:27;;;;;;;23.27;6.22;;;;;;;;;;5090205;28;20031;-78
2022/10/28 07:20:53;;;;;;;17.23;5.60;;;;;;;;;;5091522;28;20116;-77
2022/10/28 07:23:18;;;;;;;18.30;5.25;;;;;;;;;;5091148;28;20061;-76
2022/10/28 07:25:50;;;;;;;18.33;5.90;;;;;;;;;;5091444;28;20027;-77
2022/10/28 07:28:16;;;;;;;17.27;5.60;;;;;;;;;;5093370;28;20032;-80
2022/10/28 07:30:41;;;;;;;19.08;5.88;;;;;;;;;;5101194;28;20395;-80
2022/10/28 07:33:07;;;;;;;23.27;6.05;;;;;;;;;;5100959;28;20039;-83
2022/10/28 07:35:33;;;;;;;17.00;5.80;;;;;;;;;;5083255;28;20028;-85
2022/10/28 07:37:58;;;;;;;18.35;6.07;;;;;;;;;;5082771;28;20024;-83
2022/10/28 07:40:24;;;;;;;21.95;5.65;;;;;;;;;;5101455;28;20073;-81
2022/10/28 07:42:50;;;;;;;21.50;5.55;;;;;;;;;;5100893;28;20031;-79
2022/10/28 07:45:17;;;;;;;20.83;5.72;;;;;;;;;;5101410;28;20035;-78
2022/10/28 07:47:43;;;;;;;19.95;6.03;;;;;;;;;;5101207;28;20055;-80
2022/10/28 07:50:09;;;;;;;19.48;5.40;;;;;;;;;;5100876;28;20024;-80
2022/10/28 07:52:35;;;;;;;19.77;5.57;;;;;;;;;;5100817;28;20016;-83
2022/10/28 07:55:03;;;;;;;22.75;5.72;;;;;;;;;;5100634;28;20055;-77
2022/10/28 07:57:28;;;;;;;19.92;5.90;;;;;;;;;;5100709;28;20016;-76
2022/10/28 07:59:53;;;;;;;21.48;6.03;;;;;;;;;;5100631;28;20090;-78
2022/10/28 08:02:20;;;;;;;23.52;6.45;;;;;;;;;;5100824;28;20216;-80
2022/10/28 08:04:47;;;;;;;20.52;5.97;;;;;;;;;;5100850;28;20044;-86
2022/10/28 08:07:14;;;;;;;17.75;5.70;;;;;;;;;;5101029;28;20081;-78
2022/10/28 08:09:39;;;;;;;21.85;5.90;;;;;;;;;;5100523;28;20058;-83
2022/10/28 08:12:06;;;;;;;25.23;6.25;;;;;;;;;;5101282;28;20276;-77
2022/10/28 08:14:33;;;;;;;23.05;5.72;;;;;;;;;;5082178;28;20028;-78
2022/10/28 08:16:58;;;;;;;17.90;5.47;;;;;;;;;;5101426;28;20104;-77
2022/10/28 08:19:24;;;;;;;19.35;5.75;;;;;;;;;;5101083;28;20027;-78
2022/10/28 08:21:49;;;;;;;21.52;5.97;;;;;;;;;;5090821;28;20025;-78
2022/10/28 08:24:14;;;;;;;18.20;5.65;;;;;;;;;;5069858;28;20056;-76
2022/10/28 08:26:40;;;;;;;22.10;5.15;;;;;;;;;;5094356;28;20027;-76
2022/10/28 08:29:06;;;;;;;18.38;5.25;;;;;;;;;;5100193;28;20024;-80
2022/10/28 08:31:33;;;;;;;21.17;5.90;;;;;;;;;;5080630;28;20027;-78
2022/10/28 08:33:58;;;;;;;21.08;5.25;;;;;;;;;;5060556;28;20036;-78
2022/10/28 08:36:24;;;;;;;15.52;5.80;;;;;;;;;;5077809;28;20155;-74
2022/10/28 08:38:49;;;;;;;18.70;5.30;;;;;;;;;;5077859;28;20032;-77
2022/10/28 08:41:24;;;;;;;18.75;5.10;;;;;;;;;;5079527;28;20032;-79
2022/10/28 08:43:52;;;;;;;23.45;5.50;;;;;;;;;;5079149;28;20482;-79
2022/10/28 08:46:41;;;;;;;18.25;5.20;;;;;;;;;;5079710;28;20106;-79
2022/10/28 08:49:11;;;;;;;25.67;5.78;;;;;;;;;;5079187;28;20095;-78
2022/10/28 08:52:09;;;;;;;22.83;5.43;;;;;;;;;;5079608;28;20032;-79
2022/10/28 08:54:41;;;;;;;20.10;6.15;;;;;;;;;;5079421;28;20081;-79
2022/10/28 08:57:15;;;;;;;21.48;6.00;;;;;;;;;;5079913;28;20092;-82
2022/10/28 08:59:43;;;;;;;18.52;5.00;;;;;;;;;;5078774;28;20052;-77
2022/10/28 09:02:31;;;;;;;24.42;5.88;;;;;;;;;;5084146;28;20047;-75
2022/10/28 09:05:18;;;;;;;20.60;5.50;;;;;;;;;;5098318;28;20027;-75
2022/10/28 09:07:45;;;;;;;23.42;5.55;;;;;;;;;;5080902;28;20024;-81
2022/10/28 09:10:14;;;;;;;20.08;5.00;;;;;;;;;;5098955;28;20034;-79
2022/10/28 09:12:42;;;;;;;19.08;5.05;;;;;;;;;;5098571;28;20081;-79
2022/10/28 09:15:35;;;;;;;23.33;5.05;;;;;;;;;;5081437;28;20032;-80
2022/10/28 09:18:26;;;;;;;16.45;5.18;;;;;;;;;;5081645;28;20095;-85
2022/10/28 09:20:55;;;;;;;15.60;5.43;;;;;;;;;;5099340;28;20024;-78
2022/10/28 09:23:23;;;;;;;16.52;5.40;;;;;;;;;;5099295;28;20122;-85
2022/10/28 09:26:12;;;;;;;18.95;5.38;;;;;;;;;;5100038;28;20359;-82
2022/10/28 09:28:57;;;;;;;22.70;5.00;;;;;;;;;;5084498;28;20020;-78
2022/10/28 09:31:36;;;;;;;17.20;5.63;;;;;;;;;;5085165;28;20326;-83
2022/10/28 09:34:16;;;;;;;21.40;5.30;;;;;;;;;;5085291;28;20024;-87
2022/10/28 09:36:57;;;;;;;19.07;5.37;;;;;;;;;;5103433;28;20042;-77
2022/10/28 09:39:36;;;;;;;24.63;5.68;;;;;;;;;;5103445;28;20035;-79
2022/10/28 09:42:02;;;;;;;30.98;5.50;;;;;;;;;;5102023;28;20266;-82
2022/10/28 09:44:37;;;;;;;16.02;5.30;;;;;;;;;;5103663;28;20201;-82
2022/10/28 09:47:13;;;;;;;18.92;5.20;;;;;;;;;;5085550;28;20081;-82
2022/10/28 09:49:40;;;;;;;16.90;5.15;;;;;;;;;;5102923;28;20032;-82
2022/10/28 09:52:38;;;;;;;20.70;5.93;;;;;;;;;;5092049;28;20081;-83
2022/10/28 09:55:22;;;;;;;21.98;5.60;;;;;;;;;;5095942;28;20066;-81
2022/10/28 09:57:48;;;;;;;18.20;5.28;;;;;;;;;;5090041;28;20040;-78
2022/10/28 10:00:15;;;;;;;21.58;5.75;;;;;;;;;;5095995;28;20091;-76
2022/10/28 10:02:41;;;;;;;21.58;5.38;;;;;;;;;;5096088;28;20032;-76
2022/10/28 10:05:16;;;;;;;19.70;5.47;;;;;;;;;;5087115;28;20050;-77
2022/10/28 10:08:03;;;;;;;20.08;5.50;;;;;;;;;;5076634;28;20054;-77
2022/10/28 10:10:48;;;;;;;16.85;5.13;;;;;;;;;;5084400;28;20028;-74
2022/10/28 10:13:18;;;;;;;20.20;5.60;;;;;;;;;;5100443;28;20323;-74
2022/10/28 10:16:16;;;;;;;22.40;5.38;;;;;;;;;;5101318;28;20035;-74
2022/10/28 10:18:47;;;;;;;22.60;5.45;;;;;;;;;;5091883;28;20031;-74
2022/10/28 10:21:15;;;;;;;14.70;5.30;;;;;;;;;;5092164;28;20055;-73
2022/10/28 10:23:41;;;;;;;22.73;5.80;;;;;;;;;;5088179;28;20020;-73
2022/10/28 10:26:12;;;;;;;22.35;6.32;;;;;;;;;;5081206;28;20021;-76
2022/10/28 10:28:50;;;;;;;19.45;5.47;;;;;;;;;;5100174;28;20019;-75
2022/10/28 10:31:26;;;;;;;18.35;5.30;;;;;;;;;;5100788;28;20023;-74
2022/10/28 10:33:54;;;;;;;21.75;5.93;;;;;;;;;;5082910;28;20058;-80
2022/10/28 10:36:22;;;;;;;19.55;5.40;;;;;;;;;;5088092;28;20115;-78
2022/10/28 10:39:01;;;;;;;22.42;5.45;;;;;;;;;;5079596;28;20023;-77
2022/10/28 10:41:43;;;;;;;19.40;5.05;;;;;;;;;;5080445;28;20312;-78
2022/10/28 10:44:33;;;;;;;21.17;5.55;;;;;;;;;;5079696;28;20030;-78
2022/10/28 10:46:58;;;;;;;19.40;5.53;;;;;;;;;;5059296;28;20562;-77
2022/10/28 10:49:23;;;;;;;21.05;5.28;;;;;;;;;;5080590;28;20361;-76
2022/10/28 10:51:55;;;;;;;19.05;4.95;;;;;;;;;;5079258;28;20040;-76
2022/10/28 10:54:23;;;;;;;22.73;5.47;;;;;;;;;;5080520;28;20027;-76
2022/10/28 10:56:48;;;;;;;18.25;4.70;;;;;;;;;;5080277;28;20032;-79
2022/10/28 10:59:27;;;;;;;23.48;5.47;;;;;;;;;;5080638;28;20243;-83
2022/10/28 11:01:54;;;;;;;12.68;4.68;;;;;;;;;;5062500;28;20058;-75
2022/10/28 11:04:22;;;;;;;20.67;5.32;;;;;;;;;;5080484;28;20032;-78
2022/10/28 11:06:54;;;;;;;19.00;4.93;;;;;;;;;;5080133;28;20075;-75
2022/10/28 11:09:19;;;;;;;18.60;5.82;;;;;;;;;;5080093;28;20090;-74
2022/10/28 11:11:45;;;;;;;16.15;5.00;;;;;;;;;;5080157;28;20043;-78
2022/10/28 11:14:12;;;;;;;25.00;5.63;;;;;;;;;;5062842;28;20032;-75
2022/10/28 11:16:52;;;;;;;25.33;5.28;;;;;;;;;;5080096;28;20592;-75
2022/10/28 11:19:29;;;;;;;21.85;4.97;;;;;;;;;;5080505;28;20028;-76
2022/10/28 11:22:13;;;;;;;16.63;5.15;;;;;;;;;;5079650;28;20058;-76
2022/10/28 11:25:08;;;;;;;16.52;5.28;;;;;;;;;;5062580;28;20030;-77
2022/10/28 11:27:55;;;;;;;19.20;5.25;;;;;;;;;;5068981;28;20079;-76
2022/10/28 11:30:31;;;;;;;20.85;5.53;;;;;;;;;;5080361;28;20043;-77
2022/10/28 11:33:18;;;;;;;21.48;5.13;;;;;;;;;;5062269;28;20081;-78
2022/10/28 11:36:06;;;;;;;22.38;5.05;;;;;;;;;;5079956;28;20032;-76
2022/10/28 11:38:57;;;;;;;21.55;5.55;;;;;;;;;;5079719;28;20139;-76
2022/10/28 11:42:04;;;;;;;22.35;5.40;;;;;;;;;;5078724;28;20029;-76
2022/10/28 11:44:29;;;;;;;20.55;5.50;;;;;;;;;;5034991;28;20044;-76
2022/10/28 11:47:13;;;;;;;21.40;5.35;;;;;;;;;;5079562;28;20082;-75
2022/10/28 11:50:05;;;;;;;19.25;5.13;;;;;;;;;;5079362;28;20028;-73
2022/10/28 11:52:42;;;;;;;18.88;4.80;;;;;;;;;;5079022;28;20036;-73
2022/10/28 11:55:24;;;;;;;16.95;5.00;;;;;;;;;;5079401;28;20075;-74
2022/10/28 11:57:52;;;;;;;21.38;5.95;;;;;;;;;;5084067;28;20050;-73
2022/10/28 12:01:07;;;;;;;19.60;5.03;;;;;;;;;;5099314;28;20580;-74
2022/10/28 12:03:44;;;;;;;17.67;5.30;;;;;;;;;;5062682;28;20032;-77
2022/10/28 12:06:47;;;;;;;19.80;5.10;;;;;;;;;;5099734;28;20028;-78
2022/10/28 12:09:18;;;;;;;21.92;5.05;;;;;;;;;;5100726;28;20020;-76
2022/10/28 12:11:44;;;;;;;20.67;5.10;;;;;;;;;;5098744;28;20031;-78
2022/10/28 12:14:25;;;;;;;20.77;5.15;;;;;;;;;;5099768;28;20032;-78
2022/10/28 12:17:13;;;;;;;16.63;5.03;;;;;;;;;;5087354;28;20256;-78
2022/10/28 12:19:53;;;;;;;22.33;5.28;;;;;;;;;;5095175;28;20024;-77
2022/10/28 12:22:29;;;;;;;20.08;4.93;;;;;;;;;;5070378;28;20047;-77
2022/10/28 12:24:56;;;;;;;21.88;5.30;;;;;;;;;;5095434;28;20028;-76
2022/10/28 12:27:27;;;;;;;21.05;5.60;;;;;;;;;;5081009;28;20024;-78
2022/10/28 12:30:02;;;;;;;16.48;5.22;;;;;;;;;;5085123;28;20082;-77
2022/10/28 12:32:31;;;;;;;17.90;4.80;;;;;;;;;;5061165;28;20052;-74
2022/10/28 12:35:21;;;;;;;23.55;5.50;;;;;;;;;;5079889;28;20052;-74
2022/10/28 12:38:13;;;;;;;;;;;;;;;;;;5073056;28;20028;-77
2022/10/28 12:40:58;;;;;;;21.27;5.25;;;;;;;;;;5071026;28;20188;-77
2022/10/28 12:43:41;;;;;;;22.10;5.05;;;;;;;;;;5090150;28;20028;-82
2022/10/28 12:46:19;;;;;;;19.98;5.15;;;;;;;;;;5076804;28;20057;-82
2022/10/28 12:48:55;;;;;;;20.25;4.93;;;;;;;;;;5095836;28;20081;-81
2022/10/28 12:51:27;;;;;;;22.58;5.13;;;;;;;;;;5093692;28;20084;-75
2022/10/28 12:54:23;;;;;;;16.98;5.07;;;;;;;;;;5098959;28;20211;-77
2022/10/28 12:56:53;;;;;;;20.45;5.18;;;;;;;;;;5099631;28;20044;-75
2022/10/28 12:59:34;;;;;;;20.30;5.30;;;;;;;;;;5079025;28;20036;-77
2022/10/28 13:02:01;;;;;;;21.67;5.00;;;;;;;;;;5080009;28;20020;-76
2022/10/28 13:04:29;;;;;;;18.00;4.75;;;;;;;;;;5080277;28;20043;-80
2022/10/28 13:07:13;;;;;;;18.95;5.20;;;;;;;;;;5088632;28;20094;-81
2022/10/28 13:09:54;;;;;;;20.30;5.10;;;;;;;;;;5106219;28;20355;-80
2022/10/28 13:12:57;;;;;;;20.50;5.03;;;;;;;;;;5106184;28;20061;-79
2022/10/28 13:15:31;;;;;;;18.23;4.88;;;;;;;;;;5100853;28;20019;-79
2022/10/28 13:18:19;;;;;;;23.48;5.15;;;;;;;;;;5104382;28;20036;-76
2022/10/28 13:21:02;;;;;;;18.40;5.35;;;;;;;;;;5086770;28;20020;-77
2022/10/28 13:23:39;;;;;;;20.20;5.43;;;;;;;;;;5102997;28;20021;-71
2022/10/28 13:26:25;;;;;;;19.27;5.00;;;;;;;;;;5104179;28;20034;-78
2022/10/28 13:28:53;;;;;;;17.85;4.72;;;;;;;;;;5105307;28;20096;-77
2022/10/28 13:31:19;;;;;;;18.33;4.78;;;;;;;;;;5106028;28;20028;-78
2022/10/28 13:34:06;;;;;;;23.27;4.68;;;;;;;;;;5105943;28;20222;-78
2022/10/28 13:36:35;;;;;;;15.32;4.50;;;;;;;;;;5106038;28;20036;-78
2022/10/28 13:39:04;;;;;;;18.27;5.40;;;;;;;;;;5106414;28;20053;-77
2022/10/28 13:41:36;;;;;;;23.00;5.00;;;;;;;;;;5106612;28;20083;-77
2022/10/28 13:44:08;;;;;;;21.23;5.00;;;;;;;;;;5106487;28;20347;-76
2022/10/28 13:46:58;;;;;;;16.05;4.80;;;;;;;;;;5106188;28;20051;-78
2022/10/28 13:49:27;;;;;;;17.33;4.70;;;;;;;;;;5105823;28;20039;-78
2022/10/28 13:52:01;;;;;;;16.45;5.15;;;;;;;;;;5106343;28;20094;-77
2022/10/28 13:54:31;;;;;;;12.50;4.50;;;;;;;;;;5105989;28;20100;-77
2022/10/28 13:57:05;;;;;;;17.98;5.10;;;;;;;;;;5105243;28;20031;-77
2022/10/28 13:59:45;;;;;;;18.98;4.97;;;;;;;;;;5104763;28;20058;-77
2022/10/28 14:02:23;;;;;;;17.92;5.10;;;;;;;;;;5105878;28;20023;-80
2022/10/28 14:05:00;;;;;;;16.20;4.38;;;;;;;;;;5104734;28;20032;-79
2022/10/28 14:07:31;;;;;;;20.15;5.03;;;;;;;;;;5105981;28;20039;-77
2022/10/28 14:10:11;;;;;;;22.42;4.80;;;;;;;;;;5106112;28;20054;-78
2022/10/28 14:12:46;;;;;;;20.42;5.25;;;;;;;;;;5104556;28;20024;-79
2022/10/28 14:15:19;;;;;;;18.13;4.90;;;;;;;;;;5102897;28;20063;-78
2022/10/28 14:17:52;;;;;;;20.95;5.15;;;;;;;;;;5102544;28;20020;-78
2022/10/28 14:20:23;;;;;;;17.20;4.95;;;;;;;;;;5103004;28;20020;-78
2022/10/28 14:22:51;;;;;;;18.15;5.07;;;;;;;;;;5102761;28;20024;-75
2022/10/28 14:25:44;;;;;;;17.27;5.10;;;;;;;;;;5102436;28;20020;-76
2022/10/28 14:28:29;;;;;;;15.98;5.20;;;;;;;;;;5102326;28;20028;-77
2022/10/28 14:31:07;;;;;;;23.73;5.20;;;;;;;;;;5102901;28;20035;-78
2022/10/28 14:33:45;;;;;;;17.25;4.75;;;;;;;;;;5102274;28;20023;-79
2022/10/28 14:36:17;;;;;;;17.95;5.18;;;;;;;;;;5102265;28;20028;-78
2022/10/28 14:38:52;;;;;;;15.32;5.00;;;;;;;;;;5101972;28;20028;-78
2022/10/28 14:41:52;;;;;;;21.27;5.00;;;;;;;;;;5084406;28;20423;-79
2022/10/28 14:44:36;;;;;;;15.13;5.00;;;;;;;;;;5102218;28;20042;-79
2022/10/28 14:47:26;;;;;;;16.42;4.97;;;;;;;;;;5084248;28;20324;-77
2022/10/28 14:50:05;;;;;;;16.85;5.45;;;;;;;;;;5102404;28;20035;-78
2022/10/28 14:52:35;;;;;;;15.68;5.03;;;;;;;;;;5102600;28;20031;-79
2022/10/28 14:55:05;;;;;;;16.08;5.28;;;;;;;;;;5083628;28;20074;-78
2022/10/28 14:57:32;;;;;;;17.15;5.25;;;;;;;;;;5101564;28;20028;-78
2022/10/28 15:00:05;;;;;;;17.02;4.68;;;;;;;;;;5101758;28;20065;-78